Time;durP1;ratioP1;P1;durP2;ratioP2;P2;SDS_P1;SDS_P2;PMS_P1;PMS_P2;Temp;Humidity;BMP_temperature;BMP_pressure;BME280_temperature;BME280_humidity;BME280_pressure;Samples;Min_cycle;Max_cycle;Signal;HPM_P1;HPM_P2
2023/06/27 00:02:02;;;;;;;3.28;0.95;;;18.80;93.10;;;17.83;100.00;98030.56;5039683;28;20076;-73
2023/06/27 00:04:29;;;;;;;2.60;0.98;;;18.80;93.20;;;17.82;100.00;98028.91;5056894;28;20045;-73
2023/06/27 00:06:57;;;;;;;4.65;1.38;;;18.80;93.10;;;17.85;100.00;98028.69;5039116;28;20041;-72
2023/06/27 00:09:24;;;;;;;3.63;1.33;;;18.80;93.30;;;17.76;100.00;98024.84;5045036;28;20512;-73
2023/06/27 00:11:51;;;;;;;4.30;1.27;;;18.80;93.40;;;17.68;100.00;98029.75;5042339;28;20041;-73
2023/06/27 00:14:19;;;;;;;4.18;1.30;;;18.70;93.60;;;17.64;100.00;98030.91;5041737;28;20054;-71
2023/06/27 00:16:47;;;;;;;4.03;1.10;;;18.70;93.60;;;17.65;100.00;98025.56;5041822;28;20115;-73
2023/06/27 00:19:14;;;;;;;3.63;1.10;;;18.70;93.90;;;17.58;100.00;98029.47;5040394;28;20048;-72
2023/06/27 00:21:41;;;;;;;2.97;1.00;;;18.60;94.00;;;17.51;100.00;98031.66;5039549;28;20398;-73
2023/06/27 00:24:09;;;;;;;5.80;1.10;;;18.60;94.00;;;17.56;100.00;98034.84;5040986;28;20081;-73
2023/06/27 00:26:37;;;;;;;4.78;1.20;;;18.60;94.20;;;17.52;100.00;98037.78;5043234;28;20060;-73
2023/06/27 00:29:04;;;;;;;3.97;1.10;;;18.50;94.00;;;17.46;100.00;98040.78;5041325;28;20492;-72
2023/06/27 00:31:31;;;;;;;2.88;0.80;;;18.50;94.20;;;17.35;100.00;98038.81;5042663;28;20056;-73
2023/06/27 00:33:59;;;;;;;3.80;1.20;;;18.50;94.40;;;17.50;100.00;98039.66;5026525;28;20053;-73
2023/06/27 00:36:26;;;;;;;3.97;1.20;;;18.40;94.70;;;17.28;100.00;98038.34;5040597;28;20244;-72
2023/06/27 00:38:53;;;;;;;5.85;1.17;;;18.40;95.00;;;17.39;100.00;98039.47;5025992;28;20046;-73
2023/06/27 00:41:23;;;;;;;4.30;1.05;;;18.40;94.90;;;17.14;100.00;98047.09;5040627;28;20056;-72
2023/06/27 00:43:50;;;;;;;6.47;1.42;;;18.40;95.80;;;16.82;100.00;98045.59;5039719;28;20088;-72
2023/06/27 00:46:35;;;;;;;6.50;1.20;;;18.20;96.00;;;16.87;100.00;98047.00;5025178;28;20055;-72
2023/06/27 00:49:03;;;;;;;5.68;0.98;;;18.10;96.30;;;16.78;100.00;98041.44;5036095;28;20049;-73
2023/06/27 00:51:31;;;;;;;4.13;1.15;;;18.00;96.70;;;16.56;100.00;98053.22;5036855;28;20046;-72
2023/06/27 00:53:58;;;;;;;4.22;1.02;;;17.90;97.10;;;16.47;100.00;98057.22;5043479;28;20056;-73
2023/06/27 00:56:27;;;;;;;7.07;1.10;;;17.80;97.80;;;16.38;100.00;98049.06;5044534;28;20107;-73
2023/06/27 00:58:57;;;;;;;4.15;1.13;;;17.70;97.90;;;16.46;100.00;98052.91;5046849;28;20810;-73
2023/06/27 01:01:25;;;;;;;3.58;1.10;;;17.60;98.40;;;16.38;100.00;98049.91;5047513;28;20132;-73
2023/06/27 01:03:52;;;;;;;6.50;1.40;;;17.60;98.50;;;16.21;100.00;98050.88;5047732;28;20049;-73
2023/06/27 01:06:49;;;;;;;4.68;1.10;;;17.50;98.80;;;16.17;100.00;98059.00;5043705;28;20045;-73
2023/06/27 01:09:50;;;;;;;4.10;0.93;;;17.40;98.90;;;16.15;100.00;98059.09;5046103;28;20088;-73
2023/06/27 01:12:50;;;;;;;2.63;0.77;;;17.40;99.40;;;16.25;100.00;98049.75;5045988;28;20147;-73
2023/06/27 01:15:18;;;;;;;3.83;1.23;;;17.40;99.30;;;16.34;100.00;98055.41;5046049;28;20049;-72
2023/06/27 01:17:45;;;;;;;3.90;1.10;;;17.40;99.80;;;16.31;100.00;98059.91;5046234;28;20049;-73
2023/06/27 01:20:12;;;;;;;5.13;1.33;;;17.30;99.80;;;16.10;100.00;98055.88;5044245;28;20512;-73
2023/06/27 01:22:51;;;;;;;6.25;1.30;;;17.40;99.90;;;16.08;100.00;98050.75;5047850;28;20046;-73
2023/06/27 01:25:18;;;;;;;3.13;1.00;;;17.30;99.90;;;15.65;100.00;98050.53;5043846;28;20539;-70
2023/06/27 01:27:45;;;;;;;5.72;1.20;;;17.20;99.90;;;15.68;100.00;98050.34;5044971;28;20087;-73
2023/06/27 01:30:12;;;;;;;2.55;1.00;;;17.10;99.90;;;15.72;100.00;98053.69;5045330;28;20073;-72
2023/06/27 01:32:49;;;;;;;5.45;0.90;;;17.00;99.90;;;15.75;100.00;98053.50;5048450;28;20053;-73
2023/06/27 01:35:51;;;;;;;4.28;1.20;;;17.00;99.90;;;15.68;100.00;98057.34;5028573;28;20052;-72
2023/06/27 01:38:33;;;;;;;2.85;0.85;;;17.00;99.90;;;15.66;100.00;98056.59;5043753;28;20137;-72
2023/06/27 01:41:02;;;;;;;4.47;1.38;;;17.00;99.90;;;15.54;100.00;98052.88;5045539;28;20060;-72
2023/06/27 01:43:30;;;;;;;2.92;1.13;;;16.90;99.90;;;15.36;100.00;98053.91;5047024;28;20110;-70
2023/06/27 01:45:58;;;;;;;3.42;1.02;;;16.80;99.90;;;15.26;100.00;98048.31;5042634;28;20049;-72
2023/06/27 01:48:25;;;;;;;4.22;1.17;;;16.70;99.90;;;15.23;100.00;98049.31;5047456;28;20051;-72
2023/06/27 01:50:54;;;;;;;5.90;0.95;;;16.60;99.90;;;15.23;100.00;98056.31;5044136;28;20048;-72
2023/06/27 01:53:21;;;;;;;3.90;1.10;;;16.50;99.90;;;14.92;100.00;98049.28;5041068;28;20057;-73
2023/06/27 01:55:48;;;;;;;3.60;0.98;;;16.40;99.90;;;15.11;100.00;98057.81;5045854;28;20117;-73
2023/06/27 01:58:15;;;;;;;4.25;1.15;;;16.40;99.90;;;15.12;100.00;98045.59;5046651;28;20103;-73
2023/06/27 02:00:43;;;;;;;4.53;1.00;;;16.40;99.90;;;15.15;100.00;98040.22;5044548;28;20045;-73
2023/06/27 02:03:11;;;;;;;3.78;1.20;;;16.40;99.90;;;15.06;100.00;98036.31;5044700;28;20106;-73
2023/06/27 02:05:39;;;;;;;1.73;0.80;;;16.30;99.90;;;15.04;100.00;98036.38;5040686;28;20052;-70
2023/06/27 02:08:25;;;;;;;4.90;0.95;;;16.30;99.90;;;14.66;100.00;98043.63;5041858;28;20094;-73
2023/06/27 02:10:52;;;;;;;3.67;1.00;;;16.20;99.90;;;14.56;100.00;98050.25;5047288;28;20053;-73
2023/06/27 02:13:20;;;;;;;7.15;1.25;;;16.00;99.90;;;14.59;100.00;98043.09;5028365;28;20143;-73
2023/06/27 02:15:47;;;;;;;3.90;1.10;;;16.00;99.90;;;14.72;100.00;98045.09;5047136;28;20098;-73
2023/06/27 02:18:14;;;;;;;3.90;1.40;;;15.90;99.90;;;14.53;100.00;98048.63;5046494;28;20056;-73
2023/06/27 02:20:41;;;;;;;5.45;1.20;;;15.80;99.90;;;14.61;100.00;98046.47;5043592;28;20135;-72
2023/06/27 02:23:08;;;;;;;7.38;1.25;;;15.80;99.90;;;14.67;100.00;98049.72;5043581;28;20132;-72
2023/06/27 02:25:35;;;;;;;3.25;1.10;;;15.90;99.90;;;14.59;100.00;98055.31;5044667;28;20509;-73
2023/06/27 02:28:04;;;;;;;5.43;0.98;;;15.80;99.90;;;14.66;100.00;98053.22;5046222;28;20045;-72
2023/06/27 02:30:31;;;;;;;5.22;1.10;;;15.80;99.90;;;14.73;100.00;98042.38;5046033;28;20077;-70
2023/06/27 02:32:58;;;;;;;4.97;0.93;;;15.90;99.90;;;14.74;100.00;98051.09;5046726;28;20095;-72
2023/06/27 02:35:25;;;;;;;4.68;1.00;;;15.90;99.90;;;14.78;100.00;98048.22;5042858;28;20064;-72
2023/06/27 02:37:52;;;;;;;4.75;1.00;;;15.90;99.90;;;14.60;100.00;98054.41;5045262;28;20182;-72
2023/06/27 02:40:19;;;;;;;2.90;1.10;;;15.90;99.90;;;14.76;100.00;98055.31;5041530;28;20076;-69
2023/06/27 02:42:47;;;;;;;4.43;0.90;;;15.90;99.90;;;14.68;100.00;98056.63;5038579;28;20057;-72
2023/06/27 02:45:14;;;;;;;2.08;0.90;;;15.80;99.90;;;14.54;100.00;98047.72;5045319;28;20127;-72
2023/06/27 02:47:41;;;;;;;5.18;1.23;;;15.80;99.90;;;14.27;100.00;98054.31;5044214;28;20041;-73
2023/06/27 02:50:09;;;;;;;4.88;1.10;;;15.60;99.90;;;14.40;100.00;98053.59;5044086;28;20064;-72
2023/06/27 02:52:36;;;;;;;4.13;1.08;;;15.70;99.90;;;14.35;100.00;98060.00;5043513;28;20091;-73
2023/06/27 02:55:03;;;;;;;4.95;1.05;;;15.60;99.90;;;14.10;100.00;98063.81;5043849;28;20489;-72
2023/06/27 02:57:30;;;;;;;4.03;1.00;;;15.60;99.90;;;14.36;100.00;98053.84;5042332;28;20045;-73
2023/06/27 02:59:58;;;;;;;4.68;1.23;;;15.50;99.90;;;14.21;100.00;98058.91;5045452;28;20072;-73
2023/06/27 03:02:25;;;;;;;4.07;0.95;;;15.50;99.90;;;14.21;100.00;98055.47;5044959;28;20561;-73
2023/06/27 03:04:52;;;;;;;3.25;1.10;;;15.40;99.90;;;14.02;100.00;98060.72;5036390;28;20655;-72
2023/06/27 03:07:19;;;;;;;4.07;1.13;;;15.40;99.90;;;14.03;100.00;98065.03;5043995;28;20045;-72
2023/06/27 03:09:46;;;;;;;5.65;1.20;;;15.40;99.90;;;13.97;100.00;98070.56;5041076;28;20051;-72
2023/06/27 03:12:13;;;;;;;3.75;1.20;;;15.30;99.90;;;13.91;100.00;98070.84;5037046;28;20073;-72
2023/06/27 03:14:40;;;;;;;5.63;1.27;;;15.30;99.90;;;14.07;100.00;98068.34;5044324;28;20132;-72
2023/06/27 03:17:08;;;;;;;8.38;1.20;;;15.30;99.90;;;14.10;100.00;98073.44;5044849;28;20104;-71
2023/06/27 03:19:35;;;;;;;5.07;1.25;;;15.30;99.90;;;14.08;100.00;98076.09;5044126;28;20056;-73
2023/06/27 03:22:11;;;;;;;6.78;1.25;;;15.20;99.90;;;13.85;100.00;98085.03;5029281;28;20056;-72
2023/06/27 03:24:38;;;;;;;3.08;0.80;;;15.20;99.90;;;13.88;100.00;98084.88;5043448;28;20050;-71
2023/06/27 03:27:05;;;;;;;3.70;1.33;;;15.20;99.90;;;14.02;100.00;98082.44;5039882;28;20103;-72
2023/06/27 03:29:33;;;;;;;2.85;0.80;;;15.20;99.90;;;14.16;100.00;98080.94;5044277;28;20551;-72
2023/06/27 03:32:03;;;;;;;3.63;1.23;;;15.30;99.90;;;13.77;100.00;98088.00;5026411;28;20571;-71
2023/06/27 03:34:30;;;;;;;3.72;1.08;;;15.20;99.90;;;14.21;100.00;98082.41;5037488;28;20053;-72
2023/06/27 03:36:57;;;;;;;3.63;1.27;;;15.20;99.90;;;14.10;100.00;98082.09;5042483;28;20080;-72
2023/06/27 03:39:25;;;;;;;7.10;1.15;;;15.20;99.90;;;13.97;100.00;98081.84;5042563;28;20045;-72
2023/06/27 03:41:52;;;;;;;3.78;1.15;;;15.30;99.90;;;14.07;100.00;98076.16;5042017;28;20045;-72
2023/06/27 03:44:22;;;;;;;7.03;1.20;;;15.30;99.90;;;13.77;100.00;98085.38;5042824;28;20048;-72
2023/06/27 03:46:49;;;;;;;3.25;1.00;;;15.20;99.90;;;13.86;100.00;98088.50;5043941;28;20100;-72
2023/06/27 03:49:17;;;;;;;4.80;1.20;;;15.10;99.90;;;13.55;100.00;98090.78;5043776;28;20640;-73
2023/06/27 03:51:44;;;;;;;5.10;1.00;;;15.10;99.90;;;13.91;100.00;98086.50;5041745;28;20398;-72
2023/06/27 03:54:11;;;;;;;5.57;1.27;;;15.00;99.90;;;13.59;100.00;98097.56;5044465;28;20052;-71
2023/06/27 03:56:41;;;;;;;5.15;1.20;;;15.00;99.90;;;13.54;100.00;98103.88;5039583;28;20497;-71
2023/06/27 03:59:08;;;;;;;2.53;1.10;;;14.90;99.90;;;13.63;100.00;98098.25;5039352;28;20124;-72
2023/06/27 04:01:35;;;;;;;3.63;1.10;;;14.90;99.90;;;13.80;100.00;98098.31;5042728;28;20049;-72
2023/06/27 04:04:02;;;;;;;3.42;1.10;;;14.90;99.90;;;13.79;100.00;98091.38;5041686;28;20098;-72
2023/06/27 04:06:29;;;;;;;4.53;1.00;;;15.00;99.90;;;13.90;100.00;98096.09;5028254;28;20128;-72
2023/06/27 04:08:57;;;;;;;4.32;1.00;;;15.00;99.90;;;13.73;100.00;98091.69;5040071;28;20111;-72
2023/06/27 04:11:26;;;;;;;5.20;1.20;;;15.00;99.90;;;13.86;100.00;98101.53;5043631;28;20455;-71
2023/06/27 04:13:59;;;;;;;3.78;1.00;;;15.00;99.90;;;13.53;100.00;98105.66;5044491;28;20045;-72
2023/06/27 04:16:27;;;;;;;4.97;1.00;;;14.90;99.90;;;13.91;100.00;98105.63;5038034;28;20107;-72
2023/06/27 04:18:55;;;;;;;4.03;1.02;;;15.00;99.90;;;14.11;100.00;98102.03;5038431;28;20045;-72
2023/06/27 04:21:22;;;;;;;5.78;1.10;;;15.10;99.90;;;14.25;100.00;98106.59;5043117;28;20840;-72
2023/06/27 04:23:51;;;;;;;2.40;1.00;;;15.20;99.90;;;13.94;100.00;98115.09;5025846;28;20050;-72
2023/06/27 04:26:18;;;;;;;3.10;1.23;;;15.20;99.90;;;14.05;100.00;98107.59;5045331;28;20057;-71
2023/06/27 04:28:48;;;;;;;3.58;1.10;;;15.20;99.90;;;14.33;100.00;98112.28;5041654;28;20617;-72
2023/06/27 04:31:15;;;;;;;4.25;1.33;;;15.30;99.90;;;13.95;100.00;98112.38;5039919;28;20041;-72
2023/06/27 04:33:43;;;;;;;3.80;1.25;;;15.30;99.90;;;14.19;100.00;98112.13;5048470;28;20051;-71
2023/06/27 04:36:15;;;;;;;6.97;1.40;;;15.30;99.90;;;14.37;100.00;98110.38;5046693;28;20045;-72
2023/06/27 04:38:43;;;;;;;4.30;1.38;;;15.30;99.90;;;14.56;100.00;98105.97;5044443;28;20658;-72
2023/06/27 04:41:11;;;;;;;4.38;1.00;;;15.40;99.90;;;14.81;100.00;98102.09;5047514;28;20041;-72
2023/06/27 04:43:41;;;;;;;4.30;1.55;;;15.60;99.90;;;14.90;100.00;98100.78;5042181;28;20127;-72
2023/06/27 04:46:08;;;;;;;4.90;1.25;;;15.70;99.90;;;14.81;100.00;98092.50;5030064;28;20098;-70
2023/06/27 04:48:36;;;;;;;3.22;0.82;;;15.80;99.90;;;14.84;100.00;98094.94;5045864;28;20492;-73
2023/06/27 04:51:03;;;;;;;3.33;1.00;;;15.80;99.90;;;15.21;100.00;98097.41;5045655;28;20110;-73
2023/06/27 04:53:32;;;;;;;3.38;1.17;;;15.90;99.90;;;15.03;100.00;98100.06;5047836;28;20076;-73
2023/06/27 04:55:59;;;;;;;3.55;1.35;;;16.10;99.90;;;15.02;100.00;98094.91;5045740;28;20060;-72
2023/06/27 04:58:26;;;;;;;5.78;1.58;;;16.10;99.90;;;15.22;100.00;98104.34;5045391;28;20053;-72
2023/06/27 05:00:53;;;;;;;3.38;1.20;;;16.20;99.90;;;15.29;100.00;98104.84;5046645;28;20462;-73
2023/06/27 05:03:20;;;;;;;3.97;1.13;;;16.20;99.90;;;15.62;100.00;98115.25;5045296;28;20053;-70
2023/06/27 05:05:49;;;;;;;4.32;1.65;;;16.30;99.90;;;15.67;100.00;98118.50;5044364;28;20138;-71
2023/06/27 05:08:16;;;;;;;2.38;1.17;;;16.40;99.90;;;15.63;100.00;98116.97;5027252;28;20055;-72
2023/06/27 05:10:44;;;;;;;6.53;1.30;;;16.50;99.90;;;15.58;100.00;98106.75;5044255;28;20045;-72
2023/06/27 05:13:15;;;;;;;4.27;1.30;;;16.50;99.90;;;15.97;100.00;98105.50;5045744;28;20224;-73
2023/06/27 05:15:42;;;;;;;6.90;1.40;;;16.60;99.90;;;16.25;100.00;98099.53;5044158;28;20075;-73
2023/06/27 05:18:16;;;;;;;8.38;1.50;;;16.80;99.90;;;16.21;100.00;98102.41;5046181;28;20037;-73
2023/06/27 05:20:44;;;;;;;;;;;16.90;99.90;;;16.36;100.00;98100.72;5042648;28;20494;-71
2023/06/27 05:23:11;;;;;;;5.85;1.17;;;17.00;99.90;;;16.41;100.00;98099.50;5022635;28;19930;-73
2023/06/27 05:25:38;;;;;;;6.25;1.40;;;17.10;99.90;;;16.50;100.00;98092.88;5046051;28;20061;-73
2023/06/27 05:28:07;;;;;;;6.63;1.50;;;17.20;99.90;;;16.37;100.00;98094.53;5030788;28;20121;-73
2023/06/27 05:30:35;;;;;;;5.32;1.33;;;17.30;99.90;;;16.64;100.00;98098.16;5029073;28;20052;-72
2023/06/27 05:33:02;;;;;;;3.80;1.63;;;17.40;99.90;;;16.69;100.00;98100.50;5024182;28;20072;-72
2023/06/27 05:35:29;;;;;;;4.53;1.20;;;17.50;99.90;;;16.72;100.00;98109.03;5044158;28;20135;-73
2023/06/27 05:37:57;;;;;;;5.25;1.42;;;17.50;99.90;;;16.97;100.00;98106.75;5046152;28;20037;-73
2023/06/27 05:40:24;;;;;;;4.75;1.33;;;17.60;99.90;;;16.93;100.00;98099.06;5041512;28;20190;-73
2023/06/27 05:42:51;;;;;;;6.15;1.10;;;17.70;99.90;;;17.08;100.00;98106.94;5046384;28;20040;-73
2023/06/27 05:45:18;;;;;;;6.95;1.63;;;17.80;99.90;;;16.98;100.00;98108.44;5039321;28;20131;-73
2023/06/27 05:47:45;;;;;;;5.25;1.30;;;17.80;99.90;;;17.02;100.00;98102.09;5042978;28;20053;-72
2023/06/27 05:50:16;;;;;;;4.60;1.30;;;17.90;99.90;;;16.99;100.00;98104.88;5040595;28;20053;-74
2023/06/27 05:52:43;;;;;;;4.88;1.40;;;18.00;99.90;;;17.31;100.00;98098.53;5045631;28;20076;-73
2023/06/27 05:55:10;;;;;;;4.68;1.63;;;18.00;99.90;;;17.36;100.00;98098.25;5043555;28;20045;-74
2023/06/27 05:57:38;;;;;;;3.53;1.13;;;18.10;99.90;;;17.41;100.00;98090.91;5046784;28;20087;-73
2023/06/27 06:00:10;;;;;;;5.95;1.40;;;18.20;99.90;;;17.55;100.00;98092.69;5047350;28;20052;-74
2023/06/27 06:02:38;;;;;;;5.15;1.40;;;18.20;99.90;;;17.68;100.00;98090.97;5031589;28;20048;-73
2023/06/27 06:05:09;;;;;;;4.22;1.40;;;18.40;99.90;;;17.97;100.00;98088.28;5046392;28;20075;-75
2023/06/27 06:07:41;;;;;;;3.50;1.25;;;18.60;99.90;;;18.29;100.00;98087.97;5045485;28;20056;-71
2023/06/27 06:10:10;;;;;;;4.18;1.35;;;18.70;99.90;;;18.25;100.00;98084.72;5046686;28;20073;-73
2023/06/27 06:12:41;;;;;;;5.10;1.25;;;18.90;99.90;;;18.35;100.00;98085.78;5045378;28;20049;-73
2023/06/27 06:15:08;;;;;;;4.47;1.45;;;19.00;99.90;;;18.32;100.00;98087.78;5027651;28;20104;-74
2023/06/27 06:17:36;;;;;;;5.60;1.33;;;19.00;99.90;;;17.97;100.00;98088.28;5061096;28;20590;-74
2023/06/27 06:20:09;;;;;;;6.50;1.27;;;19.00;99.90;;;18.28;100.00;98089.78;5044520;28;20049;-74
2023/06/27 06:22:37;;;;;;;7.45;1.27;;;19.00;99.90;;;18.30;100.00;98085.25;5042845;28;20076;-72
2023/06/27 06:25:05;;;;;;;5.88;1.60;;;19.10;99.90;;;18.44;100.00;98083.50;5043644;28;20057;-73
2023/06/27 06:27:32;;;;;;;4.50;1.23;;;19.10;99.90;;;18.72;100.00;98088.56;5048925;28;20076;-71
2023/06/27 06:29:59;;;;;;;4.43;1.10;;;19.30;99.90;;;18.30;100.00;98085.25;5048558;28;20056;-73
2023/06/27 06:32:27;;;;;;;5.15;1.35;;;19.30;99.90;;;18.21;100.00;98092.91;5046742;28;20508;-74
2023/06/27 06:34:54;;;;;;;5.47;1.38;;;19.20;99.90;;;18.58;100.00;98094.78;5043323;28;20061;-74
2023/06/27 06:37:22;;;;;;;6.55;1.77;;;19.20;99.90;;;18.39;100.00;98092.53;5047797;28;20531;-74
2023/06/27 06:39:49;;;;;;;5.78;1.58;;;19.30;99.90;;;18.52;100.00;98096.97;5044343;28;20059;-73
2023/06/27 06:42:16;;;;;;;5.07;1.42;;;19.30;99.90;;;18.45;100.00;98101.81;5045931;28;20128;-73
2023/06/27 06:44:44;;;;;;;6.20;1.55;;;19.30;99.90;;;18.47;100.00;98104.31;5045225;28;20084;-73
2023/06/27 06:47:12;;;;;;;4.70;1.20;;;19.30;99.90;;;18.66;100.00;98101.31;5045798;28;20072;-73
2023/06/27 06:49:39;;;;;;;3.30;1.02;;;19.30;99.90;;;18.50;100.00;98093.63;5046895;28;20048;-74
2023/06/27 06:52:06;;;;;;;4.10;1.08;;;19.50;99.90;;;18.62;100.00;98095.41;5044924;28;20052;-74
2023/06/27 06:54:34;;;;;;;4.53;1.08;;;19.40;99.90;;;18.95;100.00;98094.09;5045780;28;20135;-73
2023/06/27 06:57:01;;;;;;;3.55;1.00;;;19.50;99.90;;;19.01;100.00;98093.69;5044839;28;20077;-73
2023/06/27 06:59:28;;;;;;;3.28;1.00;;;19.70;99.90;;;19.21;100.00;98095.78;5045088;28;20068;-72
2023/06/27 07:01:55;;;;;;;4.00;1.20;;;19.80;99.90;;;19.05;100.00;98097.78;5043864;28;20037;-72
2023/06/27 07:04:22;;;;;;;3.08;1.00;;;19.80;99.90;;;19.50;100.00;98095.53;5044963;28;20080;-73
2023/06/27 07:06:50;;;;;;;3.05;1.08;;;19.90;99.90;;;19.36;100.00;98083.34;5045396;28;20045;-73
2023/06/27 07:09:17;;;;;;;3.40;1.00;;;20.10;99.90;;;19.44;100.00;98074.91;5047524;28;20078;-73
2023/06/27 07:11:44;;;;;;;4.88;1.00;;;20.20;99.90;;;19.61;100.00;98076.31;5042879;28;20095;-74
2023/06/27 07:14:12;;;;;;;4.20;1.27;;;20.20;99.90;;;19.84;100.00;98082.59;5042265;28;20114;-74
2023/06/27 07:16:57;;;;;;;3.75;1.10;;;20.40;99.90;;;20.11;100.00;98082.38;5043765;28;20047;-74
2023/06/27 07:19:24;;;;;;;5.28;1.17;;;20.60;99.90;;;20.15;100.00;98070.66;5044543;28;20044;-74
2023/06/27 07:21:51;;;;;;;6.13;1.00;;;20.80;99.90;;;19.98;100.00;98076.31;5045775;28;20056;-74
2023/06/27 07:24:18;;;;;;;5.38;1.02;;;20.80;99.90;;;20.38;100.00;98076.03;5045447;28;20052;-74
2023/06/27 07:26:45;;;;;;;6.03;1.20;;;20.80;99.90;;;20.20;100.00;98075.59;5028625;28;20215;-73
2023/06/27 07:29:12;;;;;;;3.20;0.95;;;21.00;99.90;;;20.34;100.00;98070.13;5045108;28;20060;-73
2023/06/27 07:31:39;;;;;;;8.25;1.25;;;20.80;99.90;;;20.48;100.00;98063.81;5044039;28;20472;-74
2023/06/27 07:34:06;;;;;;;5.03;1.00;;;20.90;99.90;;;20.42;100.00;98067.78;5042390;28;20052;-74
2023/06/27 07:36:35;;;;;;;4.40;1.10;;;21.10;99.90;;;20.75;100.00;98063.56;5046537;28;20049;-74
2023/06/27 07:39:02;;;;;;;3.53;1.10;;;21.20;99.90;;;20.80;100.00;98055.28;5044010;28;20488;-74
2023/06/27 07:41:31;;;;;;;3.38;0.90;;;21.20;99.90;;;20.92;100.00;98053.53;5043051;28;20061;-73
2023/06/27 07:43:59;;;;;;;4.03;1.05;;;21.50;99.70;;;21.08;100.00;98051.38;5038483;28;20044;-74
2023/06/27 07:46:26;;;;;;;3.83;1.00;;;21.70;99.10;;;20.89;100.00;98060.72;5042564;28;20059;-73
2023/06/27 07:48:58;;;;;;;5.57;1.10;;;21.60;98.10;;;20.53;100.00;98058.22;5041271;28;20055;-74
2023/06/27 07:51:26;;;;;;;;;;;21.70;97.60;;;20.99;100.00;98049.47;5045585;28;20051;-74
2023/06/27 07:53:55;;;;;;;7.63;0.98;;;21.30;96.60;;;20.71;100.00;98059.50;5040711;28;19925;-74
2023/06/27 07:56:23;;;;;;;5.35;1.58;;;21.00;97.50;;;21.16;100.00;98059.53;5041185;28;20513;-73
2023/06/27 07:58:50;;;;;;;6.93;0.90;;;21.30;98.00;;;22.04;100.00;98055.22;5043073;28;20045;-74
2023/06/27 08:01:18;;;;;;;4.05;0.95;;;21.70;98.10;;;22.41;100.00;98050.38;5041642;28;20045;-74
2023/06/27 08:03:45;;;;;;;4.00;0.85;;;22.40;97.80;;;22.59;100.00;98041.88;5043003;28;20189;-74
2023/06/27 08:06:14;;;;;;;4.00;1.10;;;22.60;97.20;;;21.97;100.00;98044.31;5040751;28;20052;-73
2023/06/27 08:08:41;;;;;;;2.97;1.20;;;22.90;95.90;;;21.80;100.00;98053.59;5046122;28;20132;-74
2023/06/27 08:11:08;;;;;;;5.38;1.10;;;22.60;95.90;;;22.22;100.00;98048.44;5043687;28;20075;-74
2023/06/27 08:13:41;;;;;;;5.53;1.20;;;22.60;96.50;;;22.08;100.00;98044.25;5045080;28;20053;-74
2023/06/27 08:16:11;;;;;;;6.13;1.20;;;22.80;95.20;;;23.03;100.00;98042.56;5043982;28;20048;-74
2023/06/27 08:18:38;;;;;;;3.65;1.10;;;23.10;95.40;;;21.68;100.00;98041.38;5044562;28;20473;-74
2023/06/27 08:21:08;;;;;;;6.50;1.35;;;22.80;93.80;;;21.63;100.00;98039.09;5040905;28;20064;-74
2023/06/27 08:23:35;;;;;;;9.60;1.20;;;22.80;94.50;;;21.65;100.00;98036.34;5042505;28;20053;-75
2023/06/27 08:26:02;;;;;;;7.57;1.40;;;22.50;95.00;;;21.72;100.00;98038.38;5043516;28;20132;-74
2023/06/27 08:28:29;;;;;;;7.30;1.00;;;22.50;95.70;;;22.49;100.00;98040.00;5044198;28;20072;-75
2023/06/27 08:30:57;;;;;;;4.10;1.33;;;23.00;95.40;;;23.57;100.00;98031.59;5039544;28;20049;-74
2023/06/27 08:33:25;;;;;;;4.78;1.10;;;23.40;95.40;;;22.98;100.00;98035.81;5043953;28;20063;-74
2023/06/27 08:35:52;;;;;;;3.28;0.93;;;23.60;94.10;;;22.81;100.00;98035.59;5046403;28;20053;-74
2023/06/27 08:38:19;;;;;;;9.10;1.33;;;23.40;94.70;;;22.17;100.00;98044.44;5045747;28;20045;-74
2023/06/27 08:40:51;;;;;;;4.90;1.50;;;22.60;94.10;;;21.65;100.00;98025.78;5045434;28;20099;-74
2023/06/27 08:43:19;;;;;;;3.65;1.33;;;22.10;94.80;;;21.68;100.00;98039.56;5041316;28;20056;-74
2023/06/27 08:45:48;;;;;;;7.25;1.30;;;22.20;95.50;;;22.29;100.00;98036.38;5044073;28;20049;-74
2023/06/27 08:48:17;;;;;;;3.95;1.50;;;22.20;95.40;;;22.25;100.00;98029.66;5057542;28;20147;-74
2023/06/27 08:50:46;;;;;;;5.20;1.40;;;22.60;95.70;;;22.72;100.00;98031.94;5042050;28;20064;-74
2023/06/27 08:53:14;;;;;;;5.03;1.20;;;22.90;94.60;;;23.53;100.00;98021.41;5042365;28;20049;-73
2023/06/27 08:55:56;;;;;;;4.90;1.30;;;23.30;95.00;;;23.36;100.00;98022.91;5040109;28;20048;-73
2023/06/27 08:58:28;;;;;;;3.88;1.10;;;23.50;94.40;;;23.42;100.00;98016.22;5042918;28;20132;-74
2023/06/27 09:00:59;;;;;;;4.30;1.25;;;23.80;94.50;;;22.85;100.00;98016.66;5040756;28;20076;-74
2023/06/27 09:03:27;;;;;;;5.88;1.40;;;23.30;94.00;;;22.43;100.00;98019.38;5038632;28;20056;-74
2023/06/27 09:05:55;;;;;;;3.63;1.08;;;22.90;94.30;;;22.34;100.00;98020.97;5041818;28;20049;-73
2023/06/27 09:08:25;;;;;;;9.25;1.10;;;22.90;93.80;;;23.08;100.00;98017.38;5052496;28;20501;-75
2023/06/27 09:10:52;;;;;;;3.13;1.30;;;23.10;93.90;;;23.46;100.00;98014.97;5040889;28;21964;-74
2023/06/27 09:13:21;;;;;;;4.65;1.00;;;23.20;93.30;;;23.32;100.00;98018.84;5039369;28;20060;-77
2023/06/27 09:15:48;;;;;;;6.65;1.08;;;23.40;93.60;;;22.75;100.00;98016.63;5061221;28;20567;-77
2023/06/27 09:18:15;;;;;;;5.15;1.00;;;23.10;93.80;;;22.38;100.00;98016.28;5048170;28;20053;-76
2023/06/27 09:20:44;;;;;;;4.80;1.10;;;22.90;93.00;;;22.80;100.00;98004.81;5046647;28;20053;-77
2023/06/27 09:23:11;;;;;;;7.05;1.20;;;22.90;93.80;;;23.27;100.00;98015.78;5049989;28;20780;-77
2023/06/27 09:25:39;;;;;;;6.47;1.42;;;23.40;94.10;;;22.67;100.00;98024.41;5048151;28;20056;-77
2023/06/27 09:28:17;;;;;;;3.22;0.90;;;23.40;92.50;;;22.49;100.00;98029.44;5046188;28;20424;-76
2023/06/27 09:30:53;;;;;;;4.25;1.00;;;23.30;92.50;;;23.02;100.00;98017.91;5029756;28;20041;-76
2023/06/27 09:33:21;;;;;;;6.78;1.10;;;23.40;92.30;;;23.14;100.00;98019.47;5038591;28;20072;-77
2023/06/27 09:35:52;;;;;;;3.40;0.93;;;23.50;92.20;;;22.97;100.00;98015.63;5032529;28;20060;-77
2023/06/27 09:38:34;;;;;;;6.40;1.13;;;23.70;91.80;;;23.55;100.00;98011.50;5044432;28;20044;-77
2023/06/27 09:41:05;;;;;;;4.03;1.02;;;24.00;92.00;;;23.98;100.00;98005.88;5046480;28;20123;-76
2023/06/27 09:43:35;;;;;;;4.97;0.98;;;24.50;91.40;;;24.42;100.00;98008.06;5043421;28;20045;-77
2023/06/27 09:46:06;;;;;;;3.58;0.90;;;24.60;91.20;;;24.61;100.00;98007.25;5046844;28;20136;-77
2023/06/27 09:48:38;;;;;;;7.05;1.50;;;25.10;90.70;;;24.29;100.00;98018.13;5047225;28;20630;-77
2023/06/27 09:51:09;;;;;;;5.00;1.13;;;25.00;88.50;;;24.00;100.00;98019.84;5032829;28;20041;-77
2023/06/27 09:53:36;;;;;;;5.18;0.90;;;23.90;89.40;;;23.92;100.00;98016.19;5030721;28;20067;-75
2023/06/27 09:56:03;;;;;;;6.45;1.08;;;23.90;89.80;;;23.60;100.00;98014.59;5045941;28;20130;-76
2023/06/27 09:58:32;;;;;;;2.83;0.85;;;23.80;90.20;;;23.75;100.00;98015.06;5045807;28;20519;-75
2023/06/27 10:01:06;;;;;;;4.25;1.20;;;24.00;90.40;;;24.52;100.00;98013.38;5042558;28;20053;-75
2023/06/27 10:03:34;;;;;;;4.53;1.00;;;24.20;90.30;;;24.48;100.00;98010.19;5046838;28;20060;-74
2023/06/27 10:06:02;;;;;;;5.55;0.90;;;24.70;90.20;;;24.36;100.00;98014.78;5045186;28;20051;-74
2023/06/27 10:08:47;;;;;;;3.38;1.00;;;24.60;90.10;;;23.69;100.00;98004.97;5032026;28;20475;-73
2023/06/27 10:11:14;;;;;;;3.40;1.35;;;24.00;90.20;;;23.60;100.00;98003.97;5046515;28;20493;-73
2023/06/27 10:13:42;;;;;;;4.90;1.10;;;24.30;90.20;;;23.77;100.00;98005.19;5043462;28;20045;-73
2023/06/27 10:16:11;;;;;;;6.63;1.10;;;24.20;90.50;;;23.29;100.00;98009.38;5044548;28;20535;-74
2023/06/27 10:18:39;;;;;;;6.03;1.00;;;24.20;90.90;;;23.08;100.00;98006.78;5028099;28;20051;-74
2023/06/27 10:21:07;;;;;;;4.03;1.30;;;;;;;22.81;100.00;98006.47;5041329;28;20049;-73